sensor_id;sensor_type;location;lat;lon;timestamp;P1;durP1;ratioP1;P2;durP2;ratioP2
7477;SDS011;3780;42.424;25.636;2022-07-31T00:01:34;5.80;;;4.80;;
7477;SDS011;3780;42.424;25.636;2022-07-31T00:04:00;5.38;;;4.28;;
7477;SDS011;3780;42.424;25.636;2022-07-31T00:06:26;4.90;;;4.22;;
7477;SDS011;3780;42.424;25.636;2022-07-31T00:08:51;5.05;;;4.40;;
7477;SDS011;3780;42.424;25.636;2022-07-31T00:11:17;5.50;;;4.40;;
7477;SDS011;3780;42.424;25.636;2022-07-31T00:13:42;5.07;;;4.57;;
7477;SDS011;3780;42.424;25.636;2022-07-31T00:16:08;6.80;;;4.55;;
7477;SDS011;3780;42.424;25.636;2022-07-31T00:18:34;11.63;;;4.20;;
7477;SDS011;3780;42.424;25.636;2022-07-31T00:21:00;8.85;;;4.50;;
7477;SDS011;3780;42.424;25.636;2022-07-31T00:23:27;6.13;;;4.43;;
7477;SDS011;3780;42.424;25.636;2022-07-31T00:25:53;5.53;;;4.32;;
7477;SDS011;3780;42.424;25.636;2022-07-31T00:28:19;5.80;;;4.38;;
7477;SDS011;3780;42.424;25.636;2022-07-31T00:30:45;5.32;;;4.82;;
7477;SDS011;3780;42.424;25.636;2022-07-31T00:33:11;6.63;;;4.78;;
7477;SDS011;3780;42.424;25.636;2022-07-31T00:35:36;7.80;;;4.82;;
7477;SDS011;3780;42.424;25.636;2022-07-31T00:38:01;7.32;;;4.60;;
7477;SDS011;3780;42.424;25.636;2022-07-31T00:40:27;4.88;;;3.97;;
7477;SDS011;3780;42.424;25.636;2022-07-31T00:42:53;5.95;;;4.70;;
7477;SDS011;3780;42.424;25.636;2022-07-31T00:45:18;10.73;;;4.70;;
7477;SDS011;3780;42.424;25.636;2022-07-31T00:47:44;6.22;;;4.22;;
7477;SDS011;3780;42.424;25.636;2022-07-31T00:50:10;5.35;;;4.43;;
7477;SDS011;3780;42.424;25.636;2022-07-31T00:52:36;7.55;;;4.15;;
7477;SDS011;3780;42.424;25.636;2022-07-31T00:55:02;6.03;;;4.35;;
7477;SDS011;3780;42.424;25.636;2022-07-31T00:57:28;5.88;;;4.60;;
7477;SDS011;3780;42.424;25.636;2022-07-31T00:59:54;7.70;;;4.53;;
7477;SDS011;3780;42.424;25.636;2022-07-31T01:02:19;5.90;;;4.38;;
7477;SDS011;3780;42.424;25.636;2022-07-31T01:04:45;7.03;;;4.28;;
7477;SDS011;3780;42.424;25.636;2022-07-31T01:07:10;6.88;;;4.22;;
7477;SDS011;3780;42.424;25.636;2022-07-31T01:09:36;4.72;;;4.00;;
7477;SDS011;3780;42.424;25.636;2022-07-31T01:12:06;6.18;;;4.47;;
7477;SDS011;3780;42.424;25.636;2022-07-31T01:14:40;7.55;;;4.03;;
7477;SDS011;3780;42.424;25.636;2022-07-31T01:17:15;4.95;;;4.43;;
7477;SDS011;3780;42.424;25.636;2022-07-31T01:19:43;5.78;;;4.85;;
7477;SDS011;3780;42.424;25.636;2022-07-31T01:25:36;7.18;;;4.40;;
7477;SDS011;3780;42.424;25.636;2022-07-31T01:30:56;6.75;;;4.63;;
7477;SDS011;3780;42.424;25.636;2022-07-31T01:33:45;5.43;;;4.50;;
7477;SDS011;3780;42.424;25.636;2022-07-31T01:36:22;6.57;;;4.68;;
7477;SDS011;3780;42.424;25.636;2022-07-31T01:38:53;7.70;;;4.25;;
7477;SDS011;3780;42.424;25.636;2022-07-31T01:41:24;8.20;;;4.65;;
7477;SDS011;3780;42.424;25.636;2022-07-31T01:43:53;5.00;;;4.32;;
7477;SDS011;3780;42.424;25.636;2022-07-31T01:46:21;7.97;;;4.70;;
7477;SDS011;3780;42.424;25.636;2022-07-31T01:48:48;6.90;;;4.68;;
7477;SDS011;3780;42.424;25.636;2022-07-31T01:51:16;5.35;;;4.30;;
7477;SDS011;3780;42.424;25.636;2022-07-31T01:53:42;6.25;;;4.75;;
7477;SDS011;3780;42.424;25.636;2022-07-31T01:56:10;8.10;;;4.07;;
7477;SDS011;3780;42.424;25.636;2022-07-31T01:58:40;5.35;;;4.10;;
7477;SDS011;3780;42.424;25.636;2022-07-31T02:01:08;5.13;;;4.38;;
7477;SDS011;3780;42.424;25.636;2022-07-31T02:03:36;5.40;;;4.47;;
7477;SDS011;3780;42.424;25.636;2022-07-31T02:06:04;7.45;;;4.60;;
7477;SDS011;3780;42.424;25.636;2022-07-31T02:08:29;5.10;;;4.60;;
7477;SDS011;3780;42.424;25.636;2022-07-31T02:10:56;5.97;;;4.40;;
7477;SDS011;3780;42.424;25.636;2022-07-31T02:13:23;6.47;;;4.47;;
7477;SDS011;3780;42.424;25.636;2022-07-31T02:15:50;7.22;;;5.20;;
7477;SDS011;3780;42.424;25.636;2022-07-31T02:18:17;7.55;;;4.57;;
7477;SDS011;3780;42.424;25.636;2022-07-31T02:20:44;6.40;;;4.95;;
7477;SDS011;3780;42.424;25.636;2022-07-31T02:23:11;6.82;;;4.78;;
7477;SDS011;3780;42.424;25.636;2022-07-31T02:25:37;7.60;;;5.00;;
7477;SDS011;3780;42.424;25.636;2022-07-31T02:28:07;6.00;;;4.70;;
7477;SDS011;3780;42.424;25.636;2022-07-31T02:30:35;6.85;;;5.00;;
7477;SDS011;3780;42.424;25.636;2022-07-31T02:33:04;5.10;;;4.60;;
7477;SDS011;3780;42.424;25.636;2022-07-31T02:35:37;5.88;;;4.25;;
7477;SDS011;3780;42.424;25.636;2022-07-31T02:38:04;7.20;;;4.68;;
7477;SDS011;3780;42.424;25.636;2022-07-31T02:40:32;7.13;;;5.63;;
7477;SDS011;3780;42.424;25.636;2022-07-31T02:42:59;10.68;;;5.65;;
7477;SDS011;3780;42.424;25.636;2022-07-31T02:45:25;10.63;;;5.88;;
7477;SDS011;3780;42.424;25.636;2022-07-31T02:47:51;8.65;;;5.70;;
7477;SDS011;3780;42.424;25.636;2022-07-31T02:50:17;9.73;;;5.38;;
7477;SDS011;3780;42.424;25.636;2022-07-31T02:52:43;7.25;;;6.20;;
7477;SDS011;3780;42.424;25.636;2022-07-31T02:55:09;14.10;;;6.32;;
7477;SDS011;3780;42.424;25.636;2022-07-31T02:57:35;8.68;;;5.95;;
7477;SDS011;3780;42.424;25.636;2022-07-31T03:00:01;10.05;;;5.68;;
7477;SDS011;3780;42.424;25.636;2022-07-31T03:02:38;7.70;;;6.05;;
7477;SDS011;3780;42.424;25.636;2022-07-31T03:05:05;7.93;;;6.00;;
7477;SDS011;3780;42.424;25.636;2022-07-31T03:07:31;8.57;;;5.85;;
7477;SDS011;3780;42.424;25.636;2022-07-31T03:09:56;6.95;;;6.25;;
7477;SDS011;3780;42.424;25.636;2022-07-31T03:12:22;9.63;;;5.93;;
7477;SDS011;3780;42.424;25.636;2022-07-31T03:14:49;11.38;;;5.95;;
7477;SDS011;3780;42.424;25.636;2022-07-31T03:17:17;11.38;;;6.40;;
7477;SDS011;3780;42.424;25.636;2022-07-31T03:19:43;6.68;;;5.63;;
7477;SDS011;3780;42.424;25.636;2022-07-31T03:22:09;9.90;;;6.25;;
7477;SDS011;3780;42.424;25.636;2022-07-31T03:24:35;8.18;;;6.38;;
7477;SDS011;3780;42.424;25.636;2022-07-31T03:27:01;8.25;;;6.28;;
7477;SDS011;3780;42.424;25.636;2022-07-31T03:29:35;8.45;;;5.63;;
7477;SDS011;3780;42.424;25.636;2022-07-31T03:32:04;18.13;;;6.20;;
7477;SDS011;3780;42.424;25.636;2022-07-31T03:34:30;10.40;;;5.90;;
7477;SDS011;3780;42.424;25.636;2022-07-31T03:36:56;7.47;;;5.88;;
7477;SDS011;3780;42.424;25.636;2022-07-31T03:39:23;9.63;;;5.90;;
7477;SDS011;3780;42.424;25.636;2022-07-31T03:41:49;8.50;;;6.10;;
7477;SDS011;3780;42.424;25.636;2022-07-31T03:44:17;10.27;;;5.70;;
7477;SDS011;3780;42.424;25.636;2022-07-31T03:46:44;10.02;;;5.85;;
7477;SDS011;3780;42.424;25.636;2022-07-31T03:49:09;12.20;;;6.38;;
7477;SDS011;3780;42.424;25.636;2022-07-31T03:51:35;9.25;;;5.75;;
7477;SDS011;3780;42.424;25.636;2022-07-31T03:54:01;14.73;;;6.47;;
7477;SDS011;3780;42.424;25.636;2022-07-31T03:56:27;7.47;;;6.30;;
7477;SDS011;3780;42.424;25.636;2022-07-31T03:58:52;8.60;;;5.28;;
7477;SDS011;3780;42.424;25.636;2022-07-31T04:01:19;8.52;;;6.35;;
7477;SDS011;3780;42.424;25.636;2022-07-31T04:03:45;8.30;;;5.47;;
7477;SDS011;3780;42.424;25.636;2022-07-31T04:06:11;14.13;;;6.00;;
7477;SDS011;3780;42.424;25.636;2022-07-31T04:08:37;8.18;;;6.05;;
7477;SDS011;3780;42.424;25.636;2022-07-31T04:11:03;9.93;;;6.10;;
7477;SDS011;3780;42.424;25.636;2022-07-31T04:13:28;8.07;;;5.43;;
7477;SDS011;3780;42.424;25.636;2022-07-31T04:15:54;9.98;;;6.32;;
7477;SDS011;3780;42.424;25.636;2022-07-31T04:18:19;10.02;;;5.72;;
7477;SDS011;3780;42.424;25.636;2022-07-31T04:20:45;9.63;;;5.47;;
7477;SDS011;3780;42.424;25.636;2022-07-31T04:23:10;6.07;;;5.47;;
7477;SDS011;3780;42.424;25.636;2022-07-31T04:25:36;7.57;;;4.63;;
7477;SDS011;3780;42.424;25.636;2022-07-31T04:28:01;6.93;;;5.15;;
7477;SDS011;3780;42.424;25.636;2022-07-31T04:30:27;6.30;;;4.97;;
7477;SDS011;3780;42.424;25.636;2022-07-31T04:32:52;7.90;;;5.05;;
7477;SDS011;3780;42.424;25.636;2022-07-31T04:35:18;8.98;;;5.10;;
7477;SDS011;3780;42.424;25.636;2022-07-31T04:37:43;10.00;;;7.80;;
7477;SDS011;3780;42.424;25.636;2022-07-31T04:40:09;10.68;;;8.40;;
7477;SDS011;3780;42.424;25.636;2022-07-31T04:42:35;7.00;;;6.30;;
7477;SDS011;3780;42.424;25.636;2022-07-31T04:45:00;11.40;;;5.50;;
7477;SDS011;3780;42.424;25.636;2022-07-31T04:47:26;8.18;;;6.05;;
7477;SDS011;3780;42.424;25.636;2022-07-31T04:49:51;6.18;;;5.45;;
7477;SDS011;3780;42.424;25.636;2022-07-31T04:52:17;9.25;;;6.68;;
7477;SDS011;3780;42.424;25.636;2022-07-31T04:54:42;16.13;;;7.50;;
7477;SDS011;3780;42.424;25.636;2022-07-31T04:57:08;7.50;;;5.25;;
7477;SDS011;3780;42.424;25.636;2022-07-31T04:59:33;10.32;;;5.55;;
7477;SDS011;3780;42.424;25.636;2022-07-31T05:01:59;6.85;;;5.43;;
7477;SDS011;3780;42.424;25.636;2022-07-31T05:04:24;9.32;;;5.88;;
7477;SDS011;3780;42.424;25.636;2022-07-31T05:06:50;12.00;;;8.40;;
7477;SDS011;3780;42.424;25.636;2022-07-31T05:09:17;13.23;;;9.18;;
7477;SDS011;3780;42.424;25.636;2022-07-31T05:11:48;10.43;;;8.32;;
7477;SDS011;3780;42.424;25.636;2022-07-31T05:14:15;13.20;;;9.90;;
7477;SDS011;3780;42.424;25.636;2022-07-31T05:16:41;9.25;;;7.18;;
7477;SDS011;3780;42.424;25.636;2022-07-31T05:19:07;8.98;;;5.97;;
7477;SDS011;3780;42.424;25.636;2022-07-31T05:21:33;11.68;;;6.18;;
7477;SDS011;3780;42.424;25.636;2022-07-31T05:23:59;6.88;;;6.05;;
7477;SDS011;3780;42.424;25.636;2022-07-31T05:26:26;11.98;;;5.43;;
7477;SDS011;3780;42.424;25.636;2022-07-31T05:28:53;9.15;;;5.63;;
7477;SDS011;3780;42.424;25.636;2022-07-31T05:31:20;7.53;;;5.50;;
7477;SDS011;3780;42.424;25.636;2022-07-31T05:33:47;10.02;;;5.32;;
7477;SDS011;3780;42.424;25.636;2022-07-31T05:36:14;8.52;;;5.70;;
7477;SDS011;3780;42.424;25.636;2022-07-31T05:38:40;7.85;;;5.22;;
7477;SDS011;3780;42.424;25.636;2022-07-31T05:41:06;11.50;;;6.43;;
7477;SDS011;3780;42.424;25.636;2022-07-31T05:43:31;5.82;;;4.50;;
7477;SDS011;3780;42.424;25.636;2022-07-31T05:45:57;6.85;;;5.10;;
7477;SDS011;3780;42.424;25.636;2022-07-31T05:48:23;10.70;;;5.45;;
7477;SDS011;3780;42.424;25.636;2022-07-31T05:50:49;13.90;;;5.28;;
7477;SDS011;3780;42.424;25.636;2022-07-31T05:53:15;7.28;;;5.25;;
7477;SDS011;3780;42.424;25.636;2022-07-31T05:55:41;8.65;;;5.10;;
7477;SDS011;3780;42.424;25.636;2022-07-31T05:58:08;6.70;;;3.90;;
7477;SDS011;3780;42.424;25.636;2022-07-31T06:00:35;9.27;;;6.82;;
7477;SDS011;3780;42.424;25.636;2022-07-31T06:03:01;8.52;;;5.38;;
7477;SDS011;3780;42.424;25.636;2022-07-31T06:05:27;13.77;;;11.60;;
7477;SDS011;3780;42.424;25.636;2022-07-31T06:07:54;7.85;;;4.30;;
7477;SDS011;3780;42.424;25.636;2022-07-31T06:10:20;5.45;;;4.22;;
7477;SDS011;3780;42.424;25.636;2022-07-31T06:12:46;6.75;;;4.40;;
7477;SDS011;3780;42.424;25.636;2022-07-31T06:15:12;5.93;;;3.63;;
7477;SDS011;3780;42.424;25.636;2022-07-31T06:17:38;11.93;;;6.10;;
7477;SDS011;3780;42.424;25.636;2022-07-31T06:20:04;5.00;;;3.17;;
7477;SDS011;3780;42.424;25.636;2022-07-31T06:22:29;6.60;;;3.22;;
7477;SDS011;3780;42.424;25.636;2022-07-31T06:24:55;5.55;;;3.20;;
7477;SDS011;3780;42.424;25.636;2022-07-31T06:27:20;4.80;;;3.30;;
7477;SDS011;3780;42.424;25.636;2022-07-31T06:29:46;7.88;;;3.15;;
7477;SDS011;3780;42.424;25.636;2022-07-31T06:32:13;4.65;;;3.65;;
7477;SDS011;3780;42.424;25.636;2022-07-31T06:34:39;5.38;;;2.60;;
7477;SDS011;3780;42.424;25.636;2022-07-31T06:37:05;3.35;;;2.85;;
7477;SDS011;3780;42.424;25.636;2022-07-31T06:39:32;4.13;;;2.80;;
7477;SDS011;3780;42.424;25.636;2022-07-31T06:41:57;5.40;;;2.85;;
7477;SDS011;3780;42.424;25.636;2022-07-31T06:44:23;5.10;;;4.18;;
7477;SDS011;3780;42.424;25.636;2022-07-31T06:46:48;3.05;;;2.70;;
7477;SDS011;3780;42.424;25.636;2022-07-31T06:49:16;3.72;;;3.28;;
7477;SDS011;3780;42.424;25.636;2022-07-31T06:51:41;11.43;;;2.47;;
7477;SDS011;3780;42.424;25.636;2022-07-31T06:54:08;6.38;;;2.33;;
7477;SDS011;3780;42.424;25.636;2022-07-31T06:56:34;8.80;;;2.40;;
7477;SDS011;3780;42.424;25.636;2022-07-31T06:59:01;2.88;;;2.10;;
7477;SDS011;3780;42.424;25.636;2022-07-31T07:01:28;2.92;;;2.00;;
7477;SDS011;3780;42.424;25.636;2022-07-31T07:03:54;4.05;;;2.38;;
7477;SDS011;3780;42.424;25.636;2022-07-31T07:06:20;4.10;;;2.45;;
7477;SDS011;3780;42.424;25.636;2022-07-31T07:08:45;2.50;;;2.22;;
7477;SDS011;3780;42.424;25.636;2022-07-31T07:11:11;2.20;;;2.00;;
7477;SDS011;3780;42.424;25.636;2022-07-31T07:13:37;5.80;;;2.50;;
7477;SDS011;3780;42.424;25.636;2022-07-31T07:16:03;4.72;;;2.30;;
7477;SDS011;3780;42.424;25.636;2022-07-31T07:18:28;2.35;;;1.90;;
7477;SDS011;3780;42.424;25.636;2022-07-31T07:20:54;2.45;;;2.17;;
7477;SDS011;3780;42.424;25.636;2022-07-31T07:23:20;2.63;;;2.03;;
7477;SDS011;3780;42.424;25.636;2022-07-31T07:25:46;4.30;;;2.40;;
7477;SDS011;3780;42.424;25.636;2022-07-31T07:28:12;4.90;;;2.50;;
7477;SDS011;3780;42.424;25.636;2022-07-31T07:30:38;2.33;;;2.05;;
7477;SDS011;3780;42.424;25.636;2022-07-31T07:33:03;4.00;;;2.15;;
7477;SDS011;3780;42.424;25.636;2022-07-31T07:35:29;5.63;;;2.40;;
7477;SDS011;3780;42.424;25.636;2022-07-31T07:37:55;2.80;;;2.03;;
7477;SDS011;3780;42.424;25.636;2022-07-31T07:40:21;5.13;;;2.08;;
7477;SDS011;3780;42.424;25.636;2022-07-31T07:42:48;5.13;;;2.17;;
7477;SDS011;3780;42.424;25.636;2022-07-31T07:45:13;3.35;;;2.28;;
7477;SDS011;3780;42.424;25.636;2022-07-31T07:47:39;2.80;;;1.90;;
7477;SDS011;3780;42.424;25.636;2022-07-31T07:50:05;2.38;;;2.10;;
7477;SDS011;3780;42.424;25.636;2022-07-31T07:52:32;2.30;;;2.10;;
7477;SDS011;3780;42.424;25.636;2022-07-31T07:54:59;3.33;;;2.75;;
7477;SDS011;3780;42.424;25.636;2022-07-31T07:57:24;3.25;;;2.03;;
7477;SDS011;3780;42.424;25.636;2022-07-31T07:59:50;2.88;;;2.22;;
7477;SDS011;3780;42.424;25.636;2022-07-31T08:02:17;3.70;;;2.90;;
7477;SDS011;3780;42.424;25.636;2022-07-31T08:04:42;5.93;;;2.20;;
7477;SDS011;3780;42.424;25.636;2022-07-31T08:07:08;5.90;;;2.60;;
7477;SDS011;3780;42.424;25.636;2022-07-31T08:09:34;3.45;;;2.70;;
7477;SDS011;3780;42.424;25.636;2022-07-31T08:12:00;4.90;;;2.47;;
7477;SDS011;3780;42.424;25.636;2022-07-31T08:14:27;6.78;;;3.08;;
7477;SDS011;3780;42.424;25.636;2022-07-31T08:16:53;3.55;;;2.85;;
7477;SDS011;3780;42.424;25.636;2022-07-31T08:19:19;2.63;;;2.42;;
7477;SDS011;3780;42.424;25.636;2022-07-31T08:21:45;4.10;;;2.63;;
7477;SDS011;3780;42.424;25.636;2022-07-31T08:24:10;5.55;;;2.60;;
7477;SDS011;3780;42.424;25.636;2022-07-31T08:26:36;6.00;;;2.80;;
7477;SDS011;3780;42.424;25.636;2022-07-31T08:29:21;3.90;;;2.75;;
7477;SDS011;3780;42.424;25.636;2022-07-31T08:31:47;2.67;;;2.20;;
7477;SDS011;3780;42.424;25.636;2022-07-31T08:34:13;2.60;;;2.33;;
7477;SDS011;3780;42.424;25.636;2022-07-31T08:36:38;2.55;;;2.30;;
7477;SDS011;3780;42.424;25.636;2022-07-31T08:39:04;4.80;;;2.40;;
7477;SDS011;3780;42.424;25.636;2022-07-31T08:41:30;4.38;;;2.80;;
7477;SDS011;3780;42.424;25.636;2022-07-31T08:44:03;3.53;;;3.22;;
7477;SDS011;3780;42.424;25.636;2022-07-31T08:46:31;9.85;;;5.57;;
7477;SDS011;3780;42.424;25.636;2022-07-31T08:49:01;3.60;;;2.90;;
7477;SDS011;3780;42.424;25.636;2022-07-31T08:51:29;4.15;;;3.35;;
7477;SDS011;3780;42.424;25.636;2022-07-31T08:53:59;5.90;;;4.43;;
7477;SDS011;3780;42.424;25.636;2022-07-31T08:56:35;4.45;;;3.50;;
7477;SDS011;3780;42.424;25.636;2022-07-31T08:59:02;4.93;;;2.78;;
7477;SDS011;3780;42.424;25.636;2022-07-31T09:01:29;6.18;;;4.72;;
7477;SDS011;3780;42.424;25.636;2022-07-31T09:03:57;6.25;;;5.65;;
7477;SDS011;3780;42.424;25.636;2022-07-31T09:06:23;5.47;;;3.72;;
7477;SDS011;3780;42.424;25.636;2022-07-31T09:08:49;4.80;;;4.13;;
7477;SDS011;3780;42.424;25.636;2022-07-31T09:11:15;4.38;;;2.90;;
7477;SDS011;3780;42.424;25.636;2022-07-31T09:13:56;4.95;;;2.70;;
7477;SDS011;3780;42.424;25.636;2022-07-31T09:16:23;3.55;;;2.50;;
7477;SDS011;3780;42.424;25.636;2022-07-31T09:21:25;4.38;;;2.40;;
7477;SDS011;3780;42.424;25.636;2022-07-31T09:23:51;4.15;;;2.80;;
7477;SDS011;3780;42.424;25.636;2022-07-31T09:26:18;2.72;;;2.47;;
7477;SDS011;3780;42.424;25.636;2022-07-31T09:28:45;3.63;;;2.85;;
7477;SDS011;3780;42.424;25.636;2022-07-31T09:31:13;3.10;;;2.80;;
7477;SDS011;3780;42.424;25.636;2022-07-31T09:33:42;7.78;;;2.67;;
7477;SDS011;3780;42.424;25.636;2022-07-31T09:36:09;5.35;;;3.00;;
7477;SDS011;3780;42.424;25.636;2022-07-31T09:38:36;2.35;;;2.15;;
7477;SDS011;3780;42.424;25.636;2022-07-31T09:41:13;4.68;;;2.83;;
7477;SDS011;3780;42.424;25.636;2022-07-31T09:43:41;7.30;;;4.07;;
7477;SDS011;3780;42.424;25.636;2022-07-31T09:46:07;3.92;;;3.53;;
7477;SDS011;3780;42.424;25.636;2022-07-31T09:48:33;4.30;;;2.58;;
7477;SDS011;3780;42.424;25.636;2022-07-31T09:51:05;5.72;;;3.50;;
7477;SDS011;3780;42.424;25.636;2022-07-31T09:53:39;5.32;;;3.35;;
7477;SDS011;3780;42.424;25.636;2022-07-31T09:56:06;4.32;;;2.47;;
7477;SDS011;3780;42.424;25.636;2022-07-31T09:58:34;2.97;;;2.20;;
7477;SDS011;3780;42.424;25.636;2022-07-31T10:01:00;3.75;;;2.42;;
7477;SDS011;3780;42.424;25.636;2022-07-31T10:03:26;4.82;;;2.67;;
7477;SDS011;3780;42.424;25.636;2022-07-31T10:05:53;3.22;;;2.92;;
7477;SDS011;3780;42.424;25.636;2022-07-31T10:08:20;4.85;;;3.00;;
7477;SDS011;3780;42.424;25.636;2022-07-31T10:10:47;3.15;;;2.70;;
7477;SDS011;3780;42.424;25.636;2022-07-31T10:13:14;3.70;;;2.83;;
7477;SDS011;3780;42.424;25.636;2022-07-31T10:15:44;3.35;;;2.67;;
7477;SDS011;3780;42.424;25.636;2022-07-31T10:18:11;5.10;;;2.72;;
7477;SDS011;3780;42.424;25.636;2022-07-31T10:20:41;2.97;;;2.75;;
7477;SDS011;3780;42.424;25.636;2022-07-31T10:23:08;4.78;;;3.42;;
7477;SDS011;3780;42.424;25.636;2022-07-31T10:25:45;3.97;;;2.35;;
7477;SDS011;3780;42.424;25.636;2022-07-31T10:28:13;4.03;;;2.17;;
7477;SDS011;3780;42.424;25.636;2022-07-31T10:30:39;2.92;;;2.25;;
7477;SDS011;3780;42.424;25.636;2022-07-31T10:33:05;3.05;;;2.70;;
7477;SDS011;3780;42.424;25.636;2022-07-31T10:35:32;3.45;;;2.40;;
7477;SDS011;3780;42.424;25.636;2022-07-31T10:40:41;4.82;;;3.20;;
7477;SDS011;3780;42.424;25.636;2022-07-31T10:48:13;3.80;;;2.72;;
7477;SDS011;3780;42.424;25.636;2022-07-31T10:50:39;6.35;;;2.80;;
7477;SDS011;3780;42.424;25.636;2022-07-31T10:53:08;5.22;;;3.47;;
7477;SDS011;3780;42.424;25.636;2022-07-31T10:55:34;4.85;;;2.60;;
7477;SDS011;3780;42.424;25.636;2022-07-31T10:58:12;2.88;;;2.42;;
7477;SDS011;3780;42.424;25.636;2022-07-31T11:00:43;5.38;;;2.60;;
7477;SDS011;3780;42.424;25.636;2022-07-31T11:03:16;6.93;;;3.30;;
7477;SDS011;3780;42.424;25.636;2022-07-31T11:05:57;17.25;;;3.55;;
7477;SDS011;3780;42.424;25.636;2022-07-31T11:08:24;4.95;;;3.50;;
7477;SDS011;3780;42.424;25.636;2022-07-31T11:15:48;30.23;;;5.13;;
7477;SDS011;3780;42.424;25.636;2022-07-31T11:18:19;22.60;;;5.50;;
7477;SDS011;3780;42.424;25.636;2022-07-31T11:21:01;19.90;;;6.80;;
7477;SDS011;3780;42.424;25.636;2022-07-31T11:23:28;19.60;;;5.90;;
7477;SDS011;3780;42.424;25.636;2022-07-31T11:25:59;28.17;;;8.30;;
7477;SDS011;3780;42.424;25.636;2022-07-31T11:28:26;27.23;;;8.07;;
7477;SDS011;3780;42.424;25.636;2022-07-31T11:30:53;23.52;;;7.95;;
7477;SDS011;3780;42.424;25.636;2022-07-31T11:33:36;12.43;;;6.50;;
7477;SDS011;3780;42.424;25.636;2022-07-31T11:36:14;12.23;;;6.78;;
7477;SDS011;3780;42.424;25.636;2022-07-31T11:38:45;14.43;;;7.78;;
7477;SDS011;3780;42.424;25.636;2022-07-31T11:41:13;18.00;;;8.07;;
7477;SDS011;3780;42.424;25.636;2022-07-31T11:43:43;10.52;;;5.72;;
7477;SDS011;3780;42.424;25.636;2022-07-31T11:46:10;10.43;;;6.38;;
7477;SDS011;3780;42.424;25.636;2022-07-31T11:48:39;9.80;;;6.05;;
7477;SDS011;3780;42.424;25.636;2022-07-31T11:51:04;11.48;;;7.93;;
7477;SDS011;3780;42.424;25.636;2022-07-31T11:53:32;9.23;;;5.82;;
7477;SDS011;3780;42.424;25.636;2022-07-31T11:56:04;9.52;;;6.13;;
7477;SDS011;3780;42.424;25.636;2022-07-31T11:58:30;11.82;;;6.85;;
7477;SDS011;3780;42.424;25.636;2022-07-31T12:00:56;10.02;;;7.55;;
7477;SDS011;3780;42.424;25.636;2022-07-31T12:03:24;7.97;;;6.65;;
7477;SDS011;3780;42.424;25.636;2022-07-31T12:05:53;10.07;;;6.55;;
7477;SDS011;3780;42.424;25.636;2022-07-31T12:08:20;8.52;;;5.05;;
7477;SDS011;3780;42.424;25.636;2022-07-31T12:10:50;5.60;;;5.00;;
7477;SDS011;3780;42.424;25.636;2022-07-31T12:13:18;6.72;;;5.72;;
7477;SDS011;3780;42.424;25.636;2022-07-31T12:15:54;15.43;;;5.38;;
7477;SDS011;3780;42.424;25.636;2022-07-31T12:18:27;6.30;;;4.85;;
7477;SDS011;3780;42.424;25.636;2022-07-31T12:20:54;7.50;;;4.95;;
7477;SDS011;3780;42.424;25.636;2022-07-31T12:23:25;7.13;;;5.05;;
7477;SDS011;3780;42.424;25.636;2022-07-31T12:25:51;5.78;;;5.05;;
7477;SDS011;3780;42.424;25.636;2022-07-31T12:28:17;6.55;;;5.10;;
7477;SDS011;3780;42.424;25.636;2022-07-31T12:30:44;7.55;;;4.88;;
7477;SDS011;3780;42.424;25.636;2022-07-31T12:33:11;6.28;;;5.47;;
7477;SDS011;3780;42.424;25.636;2022-07-31T12:35:41;5.50;;;4.40;;
7477;SDS011;3780;42.424;25.636;2022-07-31T12:38:08;5.65;;;4.55;;
7477;SDS011;3780;42.424;25.636;2022-07-31T12:40:34;5.35;;;4.03;;
7477;SDS011;3780;42.424;25.636;2022-07-31T12:43:00;6.45;;;4.35;;
7477;SDS011;3780;42.424;25.636;2022-07-31T12:45:33;4.47;;;4.00;;
7477;SDS011;3780;42.424;25.636;2022-07-31T12:48:01;6.60;;;3.65;;
7477;SDS011;3780;42.424;25.636;2022-07-31T12:50:28;5.53;;;3.88;;
7477;SDS011;3780;42.424;25.636;2022-07-31T12:52:59;6.55;;;4.45;;
7477;SDS011;3780;42.424;25.636;2022-07-31T12:55:27;10.00;;;5.60;;
7477;SDS011;3780;42.424;25.636;2022-07-31T12:57:54;10.32;;;6.00;;
7477;SDS011;3780;42.424;25.636;2022-07-31T13:00:21;7.68;;;5.05;;
7477;SDS011;3780;42.424;25.636;2022-07-31T13:02:49;8.45;;;5.10;;
7477;SDS011;3780;42.424;25.636;2022-07-31T13:05:18;6.85;;;4.85;;
7477;SDS011;3780;42.424;25.636;2022-07-31T13:07:47;7.47;;;6.38;;
7477;SDS011;3780;42.424;25.636;2022-07-31T13:10:13;5.82;;;4.90;;
7477;SDS011;3780;42.424;25.636;2022-07-31T13:12:38;9.30;;;5.38;;
7477;SDS011;3780;42.424;25.636;2022-07-31T13:15:04;9.38;;;5.38;;
7477;SDS011;3780;42.424;25.636;2022-07-31T13:17:30;5.85;;;5.25;;
7477;SDS011;3780;42.424;25.636;2022-07-31T13:19:55;5.78;;;5.28;;
7477;SDS011;3780;42.424;25.636;2022-07-31T13:22:21;8.60;;;5.60;;
7477;SDS011;3780;42.424;25.636;2022-07-31T13:24:47;5.82;;;4.80;;
7477;SDS011;3780;42.424;25.636;2022-07-31T13:27:12;11.23;;;5.60;;
7477;SDS011;3780;42.424;25.636;2022-07-31T13:29:38;6.50;;;4.93;;
7477;SDS011;3780;42.424;25.636;2022-07-31T13:32:03;7.25;;;4.93;;
7477;SDS011;3780;42.424;25.636;2022-07-31T13:34:32;5.97;;;4.65;;
7477;SDS011;3780;42.424;25.636;2022-07-31T13:36:58;8.68;;;5.70;;
7477;SDS011;3780;42.424;25.636;2022-07-31T13:39:23;6.88;;;5.75;;
7477;SDS011;3780;42.424;25.636;2022-07-31T13:41:49;9.20;;;5.75;;
7477;SDS011;3780;42.424;25.636;2022-07-31T13:44:14;9.00;;;5.40;;
7477;SDS011;3780;42.424;25.636;2022-07-31T13:46:40;7.35;;;5.97;;
7477;SDS011;3780;42.424;25.636;2022-07-31T13:49:08;7.15;;;5.10;;
7477;SDS011;3780;42.424;25.636;2022-07-31T13:51:35;8.43;;;6.78;;
7477;SDS011;3780;42.424;25.636;2022-07-31T13:54:01;7.05;;;5.55;;
7477;SDS011;3780;42.424;25.636;2022-07-31T13:56:27;7.38;;;5.18;;
7477;SDS011;3780;42.424;25.636;2022-07-31T13:58:53;6.85;;;5.75;;
7477;SDS011;3780;42.424;25.636;2022-07-31T14:01:19;6.07;;;5.47;;
7477;SDS011;3780;42.424;25.636;2022-07-31T14:03:45;9.18;;;5.82;;
7477;SDS011;3780;42.424;25.636;2022-07-31T14:06:11;6.82;;;5.63;;
7477;SDS011;3780;42.424;25.636;2022-07-31T14:08:37;7.18;;;5.50;;
7477;SDS011;3780;42.424;25.636;2022-07-31T14:11:06;8.65;;;5.88;;
7477;SDS011;3780;42.424;25.636;2022-07-31T14:13:34;7.10;;;5.22;;
7477;SDS011;3780;42.424;25.636;2022-07-31T14:16:00;8.60;;;6.95;;
7477;SDS011;3780;42.424;25.636;2022-07-31T14:18:25;7.43;;;6.10;;
7477;SDS011;3780;42.424;25.636;2022-07-31T14:20:51;6.60;;;5.68;;
7477;SDS011;3780;42.424;25.636;2022-07-31T14:23:16;9.32;;;6.40;;
7477;SDS011;3780;42.424;25.636;2022-07-31T14:25:42;10.50;;;5.65;;
7477;SDS011;3780;42.424;25.636;2022-07-31T14:28:08;6.60;;;5.00;;
7477;SDS011;3780;42.424;25.636;2022-07-31T14:30:34;9.70;;;5.95;;
7477;SDS011;3780;42.424;25.636;2022-07-31T14:33:01;8.68;;;6.07;;
7477;SDS011;3780;42.424;25.636;2022-07-31T14:35:29;11.63;;;5.70;;
7477;SDS011;3780;42.424;25.636;2022-07-31T14:37:54;7.82;;;5.85;;
7477;SDS011;3780;42.424;25.636;2022-07-31T14:40:20;7.50;;;5.00;;
7477;SDS011;3780;42.424;25.636;2022-07-31T14:42:46;6.18;;;5.35;;
7477;SDS011;3780;42.424;25.636;2022-07-31T14:45:12;7.45;;;5.68;;
7477;SDS011;3780;42.424;25.636;2022-07-31T14:47:38;6.25;;;4.97;;
7477;SDS011;3780;42.424;25.636;2022-07-31T14:50:04;5.78;;;5.20;;
7477;SDS011;3780;42.424;25.636;2022-07-31T14:52:32;8.25;;;7.15;;
7477;SDS011;3780;42.424;25.636;2022-07-31T14:54:58;9.02;;;7.32;;
7477;SDS011;3780;42.424;25.636;2022-07-31T14:57:24;9.55;;;6.13;;
7477;SDS011;3780;42.424;25.636;2022-07-31T14:59:50;12.05;;;8.23;;
7477;SDS011;3780;42.424;25.636;2022-07-31T15:02:16;14.32;;;7.10;;
7477;SDS011;3780;42.424;25.636;2022-07-31T15:04:42;11.35;;;6.80;;
7477;SDS011;3780;42.424;25.636;2022-07-31T15:07:07;7.35;;;6.10;;
7477;SDS011;3780;42.424;25.636;2022-07-31T15:09:33;6.85;;;6.15;;
7477;SDS011;3780;42.424;25.636;2022-07-31T15:11:58;8.25;;;6.53;;
7477;SDS011;3780;42.424;25.636;2022-07-31T15:14:24;8.10;;;6.10;;
7477;SDS011;3780;42.424;25.636;2022-07-31T15:16:50;11.35;;;6.13;;
7477;SDS011;3780;42.424;25.636;2022-07-31T15:19:18;10.55;;;6.72;;